Time;durP1;ratioP1;P1;durP2;ratioP2;P2;SDS_P1;SDS_P2;PMS_P1;PMS_P2;Temp;Humidity;BMP_temperature;BMP_pressure;BME280_temperature;BME280_humidity;BME280_pressure;Samples;Min_cycle;Max_cycle;Signal;HPM_P1;HPM_P2
2022/04/17 00:00:27;;;;;;;;;;;2.00;91.60;;;;;;5052136;28;19909;-73
2022/04/17 00:02:53;;;;;;;;;;;1.80;92.00;;;;;;5052070;28;19951;-73
2022/04/17 00:05:19;;;;;;;;;;;1.80;92.40;;;;;;5051919;28;19909;-73
2022/04/17 00:07:44;;;;;;;;;;;2.00;91.80;;;;;;5052173;28;19948;-73
2022/04/17 00:10:10;;;;;;;;;;;2.00;92.00;;;;;;5052223;28;20350;-73
2022/04/17 00:12:36;;;;;;;;;;;2.00;92.20;;;;;;5051803;28;19920;-73
2022/04/17 00:15:03;;;;;;;;;;;2.20;91.70;;;;;;5050215;28;19909;-73
2022/04/17 00:17:29;;;;;;;;;;;2.10;91.90;;;;;;5051410;28;19923;-73
2022/04/17 00:19:54;;;;;;;;;;;2.10;91.70;;;;;;5051863;28;19917;-73
2022/04/17 00:22:20;;;;;;;;;;;2.10;91.90;;;;;;5051084;28;19908;-73
2022/04/17 00:24:45;;;;;;;;;;;1.90;92.20;;;;;;5044726;28;19995;-73
2022/04/17 00:27:11;;;;;;;;;;;1.70;92.60;;;;;;5050542;28;20255;-73
2022/04/17 00:29:36;;;;;;;;;;;1.60;93.00;;;;;;5051773;28;19952;-73
2022/04/17 00:32:02;;;;;;;;;;;1.40;93.10;;;;;;5051518;28;19963;-73
2022/04/17 00:34:29;;;;;;;;;;;1.30;93.70;;;;;;5051194;28;19914;-73
2022/04/17 00:36:59;;;;;;;;;;;1.10;94.00;;;;;;5051713;28;19914;-73
2022/04/17 00:39:25;;;;;;;;;;;1.00;94.60;;;;;;5051593;28;19909;-73
2022/04/17 00:41:50;;;;;;;;;;;0.80;95.20;;;;;;5051235;28;19955;-73
2022/04/17 00:44:16;;;;;;;;;;;0.90;95.50;;;;;;5051218;28;19913;-73
2022/04/17 00:46:41;;;;;;;;;;;0.90;96.00;;;;;;5050934;28;19913;-73
2022/04/17 00:49:07;;;;;;;;;;;0.80;95.70;;;;;;5051320;28;19908;-73
2022/04/17 00:51:33;;;;;;;;;;;0.80;95.70;;;;;;5051495;28;20261;-73
2022/04/17 00:54:00;;;;;;;;;;;0.80;95.80;;;;;;5051005;28;20376;-73
2022/04/17 00:56:26;;;;;;;;;;;0.90;96.20;;;;;;5051233;28;19909;-73
2022/04/17 00:58:51;;;;;;;;;;;0.90;96.40;;;;;;5051302;28;19919;-73
2022/04/17 01:01:17;;;;;;;;;;;0.80;96.60;;;;;;5051463;28;19916;-73
2022/04/17 01:03:43;;;;;;;;;;;1.10;96.20;;;;;;5050928;28;19916;-73
2022/04/17 01:06:08;;;;;;;;;;;1.20;95.70;;;;;;5051323;28;19971;-73
2022/04/17 01:08:41;;;;;;;;;;;1.10;95.60;;;;;;5051189;28;19908;-73
2022/04/17 01:11:13;;;;;;;;;;;1.10;95.80;;;;;;5050672;28;20328;-73
2022/04/17 01:13:40;;;;;;;;;;;1.00;95.80;;;;;;5050058;28;20354;-73
2022/04/17 01:16:05;;;;;;;;;;;0.80;96.30;;;;;;5048243;28;19919;-73
2022/04/17 01:18:50;;;;;;;;;;;0.70;96.40;;;;;;5050938;28;19987;-73
2022/04/17 01:21:17;;;;;;;;;;;0.80;96.30;;;;;;5044891;28;19935;-73
2022/04/17 01:29:11;;;;;;;;;;;0.60;96.90;;;;;;5077141;28;19923;-73
2022/04/17 01:31:37;;;;;;;;;;;0.70;96.60;;;;;;5076611;28;19908;-73
2022/04/17 01:34:02;;;;;;;;;;;0.40;96.70;;;;;;5076318;28;19929;-75
2022/04/17 01:36:28;;;;;;;;;;;0.30;97.30;;;;;;5076814;28;19896;-73
2022/04/17 01:38:53;;;;;;;;;;;0.30;97.70;;;;;;5080587;28;19939;-73
2022/04/17 01:41:19;;;;;;;;;;;0.30;97.90;;;;;;5074248;28;19920;-73
2022/04/17 01:43:44;;;;;;;;;;;0.20;98.00;;;;;;5054678;28;19912;-73
2022/04/17 01:46:10;;;;;;;;;;;0.20;98.20;;;;;;5053857;28;19916;-73
2022/04/17 01:48:35;;;;;;;;;;;0.10;98.80;;;;;;5054564;28;19913;-73
2022/04/17 01:51:01;;;;;;;;;;;0.20;98.90;;;;;;5054730;28;20830;-73
2022/04/17 01:53:27;;;;;;;;;;;0.30;98.50;;;;;;5054128;28;20007;-73
2022/04/17 01:55:52;;;;;;;;;;;0.30;98.50;;;;;;5054765;28;20435;-73
2022/04/17 01:58:17;;;;;;;;;;;0.20;98.50;;;;;;5054648;28;19999;-73
2022/04/17 02:00:43;;;;;;;;;;;0.10;99.00;;;;;;5054584;28;19917;-73
2022/04/17 02:03:08;;;;;;;;;;;0.10;99.50;;;;;;5054077;28;20344;-73
2022/04/17 02:05:34;;;;;;;;;;;0.10;99.40;;;;;;5054626;28;19915;-73
2022/04/17 02:07:59;;;;;;;;;;;0.00;99.90;;;;;;5054406;28;20362;-73
2022/04/17 02:10:25;;;;;;;;;;;0.00;99.90;;;;;;5053190;28;19916;-73
2022/04/17 02:12:50;;;;;;;;;;;0.10;99.90;;;;;;5054165;28;19959;-73
2022/04/17 02:15:16;;;;;;;;;;;0.00;99.90;;;;;;5053667;28;20406;-73
2022/04/17 02:17:42;;;;;;;;;;;-0.10;99.90;;;;;;5053712;28;19917;-73
2022/04/17 02:20:08;;;;;;;;;;;-0.20;99.90;;;;;;5054454;28;20007;-73
2022/04/17 02:22:34;;;;;;;;;;;-0.30;99.90;;;;;;5054015;28;19909;-73
2022/04/17 02:24:59;;;;;;;;;;;-0.40;99.90;;;;;;5053924;28;19909;-73
2022/04/17 02:27:24;;;;;;;;;;;-0.50;99.90;;;;;;5054235;28;20019;-73
2022/04/17 02:29:50;;;;;;;;;;;-0.50;99.90;;;;;;5054286;28;19916;-73
2022/04/17 02:32:16;;;;;;;;;;;-0.60;99.90;;;;;;5053886;28;19940;-72
2022/04/17 02:34:41;;;;;;;;;;;-0.60;99.90;;;;;;5053709;28;19909;-73
2022/04/17 02:37:06;;;;;;;;;;;-0.50;99.90;;;;;;5054001;28;19935;-74
2022/04/17 02:39:33;;;;;;;;;;;-0.60;99.90;;;;;;5053975;28;19917;-73
2022/04/17 02:41:58;;;;;;;;;;;-0.70;99.90;;;;;;5053998;28;20331;-73
2022/04/17 02:44:23;;;;;;;;;;;-0.80;99.90;;;;;;5053311;28;19955;-73
2022/04/17 02:49:33;;;;;;;;;;;-1.00;99.90;;;;;;5053386;28;19955;-73
2022/04/17 02:51:59;;;;;;;;;;;-0.90;99.90;;;;;;5053335;28;19912;-73
2022/04/17 02:54:25;;;;;;;;;;;-0.90;99.90;;;;;;5053472;28;19913;-73
2022/04/17 02:56:50;;;;;;;;;;;-1.00;99.90;;;;;;5053947;28;20278;-73
2022/04/17 02:59:16;;;;;;;;;;;-0.90;99.90;;;;;;5053552;28;19939;-73
2022/04/17 03:07:09;;;;;;;;;;;-1.00;99.90;;;;;;5053309;28;19916;-73
2022/04/17 03:09:35;;;;;;;;;;;-1.20;99.90;;;;;;5053348;28;20277;-73
2022/04/17 03:12:01;;;;;;;;;;;-1.10;99.90;;;;;;5052976;28;19913;-73
2022/04/17 03:14:27;;;;;;;;;;;-1.10;99.90;;;;;;5052740;28;19913;-73
2022/04/17 03:16:52;;;;;;;;;;;-1.20;99.90;;;;;;5052710;28;19913;-74
2022/04/17 03:19:18;;;;;;;;;;;-1.20;99.90;;;;;;5053024;28;19995;-73
2022/04/17 03:21:44;;;;;;;;;;;-1.20;99.90;;;;;;5052933;28;20366;-73
2022/04/17 03:24:10;;;;;;;;;;;-1.20;99.90;;;;;;5052903;28;19955;-73
2022/04/17 03:26:36;;;;;;;;;;;-1.20;99.90;;;;;;5053145;28;19963;-73
2022/04/17 03:29:02;;;;;;;;;;;-1.30;99.90;;;;;;5053317;28;20336;-73
2022/04/17 03:31:28;;;;;;;;;;;-1.50;99.90;;;;;;5052763;28;19909;-73
2022/04/17 03:33:53;;;;;;;;;;;-1.40;99.90;;;;;;5052613;28;20413;-73
2022/04/17 03:36:19;;;;;;;;;;;-1.40;99.90;;;;;;5052982;28;20385;-73
2022/04/17 03:38:44;;;;;;;;;;;-1.40;99.90;;;;;;5052956;28;20007;-73
2022/04/17 03:41:10;;;;;;;;;;;-1.30;99.90;;;;;;5052777;28;19909;-73
2022/04/17 03:43:35;;;;;;;;;;;-1.50;99.90;;;;;;5052522;28;19912;-73
2022/04/17 03:46:01;;;;;;;;;;;-1.50;99.90;;;;;;5051401;28;20342;-73
2022/04/17 03:48:26;;;;;;;;;;;-1.50;99.90;;;;;;5052515;28;19920;-73
2022/04/17 03:50:52;;;;;;;;;;;-1.60;99.90;;;;;;5052570;28;19952;-73
2022/04/17 03:53:18;;;;;;;;;;;-1.60;99.90;;;;;;5052187;28;20285;-73
2022/04/17 03:55:43;;;;;;;;;;;-1.60;99.90;;;;;;5052636;28;19909;-73
2022/04/17 03:58:09;;;;;;;;;;;-1.60;99.90;;;;;;5052490;28;19917;-73
2022/04/17 04:00:34;;;;;;;;;;;-1.60;99.90;;;;;;5051525;28;19963;-73
2022/04/17 04:03:01;;;;;;;;;;;-1.60;99.90;;;;;;5051000;28;19916;-73
2022/04/17 04:05:26;;;;;;;;;;;-1.70;99.90;;;;;;5052098;28;19916;-73
2022/04/17 04:07:52;;;;;;;;;;;-1.70;99.90;;;;;;5052364;28;19909;-73
2022/04/17 04:10:17;;;;;;;;;;;-1.70;99.90;;;;;;5052281;28;19916;-73
2022/04/17 04:12:43;;;;;;;;;;;-1.70;99.90;;;;;;5052040;28;19917;-73
2022/04/17 04:15:08;;;;;;;;;;;-1.80;99.90;;;;;;5048069;28;19913;-73
2022/04/17 04:17:34;;;;;;;;;;;-1.80;99.90;;;;;;5051434;28;20008;-73
2022/04/17 04:20:00;;;;;;;;;;;-1.80;99.90;;;;;;5052035;28;19962;-73
2022/04/17 04:22:26;;;;;;;;;;;-1.80;99.90;;;;;;5047261;28;20304;-73
2022/04/17 04:24:51;;;;;;;;;;;-1.70;99.90;;;;;;5051851;28;19909;-73
2022/04/17 04:30:02;;;;;;;;;;;-1.50;99.90;;;;;;5052288;28;19940;-73
2022/04/17 04:32:27;;;;;;;;;;;-1.40;99.90;;;;;;5051577;28;19912;-73
2022/04/17 04:34:57;;;;;;;;;;;-1.40;99.90;;;;;;5051523;28;19909;-73
2022/04/17 04:37:22;;;;;;;;;;;-1.40;99.90;;;;;;5051860;28;19959;-73
2022/04/17 04:39:48;;;;;;;;;;;-1.30;99.90;;;;;;5051815;28;19968;-73
2022/04/17 04:42:13;;;;;;;;;;;-1.30;99.90;;;;;;5051448;28;19908;-73
2022/04/17 04:44:39;;;;;;;;;;;-1.30;99.90;;;;;;5049191;28;19916;-73
2022/04/17 04:47:04;;;;;;;;;;;-1.20;99.90;;;;;;5047775;28;19913;-73
2022/04/17 04:49:29;;;;;;;;;;;-1.20;99.90;;;;;;5051455;28;19909;-73
2022/04/17 04:51:55;;;;;;;;;;;-1.20;99.90;;;;;;5051383;28;19917;-73
2022/04/17 04:54:21;;;;;;;;;;;-1.10;99.90;;;;;;5051106;28;20007;-73
2022/04/17 04:56:46;;;;;;;;;;;-1.10;99.90;;;;;;5051526;28;19966;-73
2022/04/17 04:59:12;;;;;;;;;;;-1.00;99.90;;;;;;5051508;28;20277;-73
2022/04/17 05:01:37;;;;;;;;;;;-1.10;99.90;;;;;;5051331;28;19967;-73
2022/04/17 05:04:03;;;;;;;;;;;-1.30;99.90;;;;;;5051091;28;19913;-73
2022/04/17 05:06:29;;;;;;;;;;;-1.40;99.90;;;;;;5051398;28;20289;-73
2022/04/17 05:08:54;;;;;;;;;;;-1.40;99.90;;;;;;5051360;28;20003;-73
2022/04/17 05:11:20;;;;;;;;;;;-1.40;99.90;;;;;;5050926;28;19924;-73
2022/04/17 05:13:46;;;;;;;;;;;-1.40;99.90;;;;;;5050909;28;19978;-73
2022/04/17 05:16:13;;;;;;;;;;;-1.30;99.90;;;;;;5049672;28;19913;-73
2022/04/17 05:18:38;;;;;;;;;;;-1.20;99.90;;;;;;5060454;28;19917;-73
2022/04/17 05:21:05;;;;;;;;;;;-1.10;99.90;;;;;;5051119;28;19908;-73
2022/04/17 05:23:31;;;;;;;;;;;-1.00;99.90;;;;;;5050860;28;19916;-73
2022/04/17 05:25:58;;;;;;;;;;;-0.90;99.90;;;;;;5051136;28;19915;-73
2022/04/17 05:28:23;;;;;;;;;;;-0.80;99.90;;;;;;5051255;28;20313;-73
2022/04/17 05:30:49;;;;;;;;;;;-0.80;99.90;;;;;;5051134;28;19954;-74
2022/04/17 05:33:18;;;;;;;;;;;-0.70;99.90;;;;;;5050578;28;19913;-73
2022/04/17 05:35:44;;;;;;;;;;;-0.60;99.90;;;;;;5051071;28;19912;-74
2022/04/17 05:38:10;;;;;;;;;;;-0.50;99.90;;;;;;5051081;28;19909;-74
2022/04/17 05:40:37;;;;;;;;;;;-0.40;99.90;;;;;;5050900;28;20003;-73
2022/04/17 05:43:03;;;;;;;;;;;-0.40;99.90;;;;;;5050724;28;19909;-73
2022/04/17 05:45:29;;;;;;;;;;;-0.30;99.90;;;;;;5041770;28;19970;-73
2022/04/17 05:47:55;;;;;;;;;;;0.50;99.90;;;;;;5050698;28;19962;-74
2022/04/17 05:50:20;;;;;;;;;;;0.70;99.90;;;;;;5051024;28;19909;-73
2022/04/17 05:52:46;;;;;;;;;;;0.80;99.90;;;;;;5050703;28;19912;-73
2022/04/17 05:55:11;;;;;;;;;;;0.70;99.90;;;;;;5050665;28;19969;-74
2022/04/17 05:57:37;;;;;;;;;;;0.50;99.90;;;;;;5050842;28;20293;-73
2022/04/17 06:00:04;;;;;;;;;;;0.80;99.90;;;;;;5050930;28;20007;-73
2022/04/17 06:02:29;;;;;;;;;;;1.10;99.90;;;;;;5050661;28;20178;-73
2022/04/17 06:04:55;;;;;;;;;;;1.00;99.90;;;;;;5050551;28;20000;-73
2022/04/17 06:07:24;;;;;;;;;;;1.40;99.90;;;;;;5050730;28;20009;-73
2022/04/17 06:09:49;;;;;;;;;;;1.40;99.90;;;;;;5050725;28;19916;-74
2022/04/17 06:12:15;;;;;;;;;;;1.40;99.90;;;;;;5050518;28;19909;-74
2022/04/17 06:14:41;;;;;;;;;;;1.50;99.90;;;;;;5050424;28;20362;-73
2022/04/17 06:17:06;;;;;;;;;;;1.90;99.90;;;;;;5059665;28;19920;-74
2022/04/17 06:19:32;;;;;;;;;;;1.90;99.90;;;;;;5050537;28;19909;-74
2022/04/17 06:21:57;;;;;;;;;;;2.10;99.90;;;;;;5050524;28;19909;-74
2022/04/17 06:24:23;;;;;;;;;;;2.30;99.90;;;;;;5053009;28;20289;-74
2022/04/17 06:26:48;;;;;;;;;;;2.80;99.90;;;;;;5054189;28;19931;-74
2022/04/17 06:29:14;;;;;;;;;;;2.90;99.90;;;;;;5054191;28;19916;-74
2022/04/17 06:31:45;;;;;;;;;;;2.90;99.90;;;;;;5053831;28;19915;-74
2022/04/17 06:34:11;;;;;;;;;;;3.10;99.90;;;;;;5053667;28;20400;-73
2022/04/17 06:36:37;;;;;;;;;;;3.30;99.90;;;;;;5054051;28;19909;-73
2022/04/17 06:39:03;;;;;;;;;;;3.80;99.30;;;;;;5053977;28;20421;-74
2022/04/17 06:41:28;;;;;;;;;;;3.70;99.20;;;;;;5053770;28;19952;-74
2022/04/17 06:43:53;;;;;;;;;;;4.10;98.50;;;;;;5052363;28;19919;-74
2022/04/17 06:46:19;;;;;;;;;;;4.30;96.50;;;;;;5052780;28;20357;-73
2022/04/17 06:48:44;;;;;;;;;;;4.50;95.40;;;;;;5053716;28;19912;-73
2022/04/17 06:51:10;;;;;;;;;;;4.40;95.90;;;;;;5055568;28;19909;-72
2022/04/17 06:53:35;;;;;;;;;;;4.70;94.80;;;;;;5054822;28;19999;-74
2022/04/17 06:56:01;;;;;;;;;;;4.70;95.00;;;;;;5053767;28;20347;-74
2022/04/17 06:58:26;;;;;;;;;;;4.70;94.40;;;;;;5053602;28;20274;-74
2022/04/17 07:00:52;;;;;;;;;;;4.80;93.50;;;;;;5053526;28;19959;-74
2022/04/17 07:03:17;;;;;;;;;;;4.90;93.50;;;;;;5051683;28;20012;-74
2022/04/17 07:05:44;;;;;;;;;;;5.00;94.00;;;;;;5053425;28;19913;-74
2022/04/17 07:08:09;;;;;;;;;;;5.00;93.70;;;;;;5053233;28;19909;-73
2022/04/17 07:10:39;;;;;;;;;;;5.10;93.10;;;;;;5053283;28;19915;-74
2022/04/17 07:13:08;;;;;;;;;;;5.50;92.40;;;;;;5052878;28;19917;-74
2022/04/17 07:15:34;;;;;;;;;;;5.70;92.50;;;;;;5048634;28;20004;-74
2022/04/17 07:17:59;;;;;;;;;;;5.70;91.70;;;;;;5052880;28;20003;-74
2022/04/17 07:20:25;;;;;;;;;;;6.10;91.20;;;;;;5053251;28;20392;-74
2022/04/17 07:22:51;;;;;;;;;;;6.40;91.00;;;;;;5053041;28;19955;-74
2022/04/17 07:25:17;;;;;;;;;;;7.80;89.30;;;;;;5046558;28;19916;-74
2022/04/17 07:27:44;;;;;;;;;;;9.70;83.60;;;;;;5053240;28;19909;-74
2022/04/17 07:30:13;;;;;;;;;;;9.90;74.70;;;;;;5053085;28;19909;-74
2022/04/17 07:32:39;;;;;;;;;;;10.40;71.20;;;;;;5052579;28;19913;-74
2022/04/17 07:35:05;;;;;;;;;;;11.60;72.50;;;;;;5051433;28;19908;-74
2022/04/17 07:37:34;;;;;;;;;;;11.80;67.10;;;;;;5052983;28;19909;-74
2022/04/17 07:39:59;;;;;;;;;;;11.30;63.10;;;;;;5052830;28;19909;-74
2022/04/17 07:42:25;;;;;;;;;;;11.40;66.60;;;;;;5051332;28;20350;-74
2022/04/17 07:44:50;;;;;;;;;;;11.90;65.20;;;;;;5052426;28;19915;-74
2022/04/17 07:47:16;;;;;;;;;;;12.60;66.50;;;;;;5052176;28;20367;-74
2022/04/17 07:49:42;;;;;;;;;;;12.40;63.60;;;;;;5052503;28;19916;-74
2022/04/17 07:52:08;;;;;;;;;;;12.20;60.60;;;;;;5052473;28;19962;-74
2022/04/17 07:54:34;;;;;;;;;;;12.50;64.60;;;;;;5052116;28;19920;-74
2022/04/17 07:57:00;;;;;;;;;;;13.00;61.20;;;;;;5052585;28;20027;-74
2022/04/17 07:59:25;;;;;;;;;;;12.40;57.70;;;;;;5052387;28;19963;-74
2022/04/17 08:02:01;;;;;;;;;;;13.30;63.90;;;;;;5051947;28;19909;-74
2022/04/17 08:04:30;;;;;;;;;;;13.90;58.70;;;;;;5051778;28;19909;-74
2022/04/17 08:06:56;;;;;;;;;;;14.30;58.10;;;;;;5052252;28;19963;-74
2022/04/17 08:09:21;;;;;;;;;;;14.70;57.00;;;;;;5052113;28;19909;-74
2022/04/17 08:11:51;;;;;;;;;;;14.10;59.50;;;;;;5051851;28;19913;-74
2022/04/17 08:14:20;;;;;;;;;;;14.40;58.20;;;;;;5051614;28;19916;-74
2022/04/17 08:16:46;;;;;;;;;;;14.40;55.70;;;;;;5050377;28;19952;-75
2022/04/17 08:19:12;;;;;;;;;;;14.20;59.70;;;;;;5051799;28;19963;-74
2022/04/17 08:21:37;;;;;;;;;;;14.20;55.10;;;;;;5051533;28;19909;-74
2022/04/17 08:24:03;;;;;;;;;;;15.30;58.60;;;;;;5051510;28;19958;-75
2022/04/17 08:26:28;;;;;;;;;;;14.90;58.60;;;;;;5051848;28;19913;-74
2022/04/17 08:28:54;;;;;;;;;;;15.80;57.50;;;;;;5051752;28;19917;-75
2022/04/17 08:31:19;;;;;;;;;;;15.00;55.40;;;;;;5051429;28;19913;-74
2022/04/17 08:33:45;;;;;;;;;;;14.00;55.40;;;;;;5050424;28;20445;-74
2022/04/17 08:36:12;;;;;;;;;;;14.90;55.70;;;;;;5051776;28;19913;-74
2022/04/17 08:38:38;;;;;;;;;;;15.60;54.30;;;;;;5051608;28;19920;-74
2022/04/17 08:41:05;;;;;;;;;;;15.80;54.60;;;;;;5051503;28;19909;-75
2022/04/17 08:43:31;;;;;;;;;;;14.70;54.60;;;;;;5051278;28;19909;-74
2022/04/17 08:45:57;;;;;;;;;;;15.60;54.70;;;;;;5045421;28;19948;-74
2022/04/17 08:48:22;;;;;;;;;;;15.00;56.00;;;;;;5051858;28;20286;-74
2022/04/17 08:50:49;;;;;;;;;;;15.60;54.60;;;;;;5051220;28;19963;-74
2022/04/17 08:53:16;;;;;;;;;;;15.20;52.40;;;;;;5050808;28;20324;-74
2022/04/17 08:55:42;;;;;;;;;;;16.20;52.50;;;;;;5051331;28;19915;-74
2022/04/17 08:58:09;;;;;;;;;;;16.70;53.80;;;;;;5051267;28;20301;-74
2022/04/17 09:00:34;;;;;;;;;;;17.90;53.10;;;;;;5050907;28;20479;-74
2022/04/17 09:03:00;;;;;;;;;;;18.20;49.90;;;;;;5051047;28;20005;-74
2022/04/17 09:05:26;;;;;;;;;;;15.80;46.00;;;;;;5044382;28;19931;-74
2022/04/17 09:07:53;;;;;;;;;;;15.60;53.60;;;;;;5051026;28;19963;-74
2022/04/17 09:10:29;;;;;;;;;;;16.80;46.90;;;;;;5050919;28;20285;-74
2022/04/17 09:13:01;;;;;;;;;;;15.20;49.10;;;;;;5049849;28;20382;-74
2022/04/17 09:15:29;;;;;;;;;;;15.60;46.90;;;;;;5049659;28;20028;-74
2022/04/17 09:17:54;;;;;;;;;;;15.90;45.70;;;;;;5050402;28;20451;-74
2022/04/17 09:20:22;;;;;;;;;;;16.40;47.90;;;;;;5051041;28;19909;-74
2022/04/17 09:22:55;;;;;;;;;;;16.20;47.00;;;;;;5051045;28;19920;-74
2022/04/17 09:25:24;;;;;;;;;;;16.60;49.70;;;;;;5050991;28;20052;-74
2022/04/17 09:28:03;;;;;;;;;;;16.20;47.00;;;;;;5049819;28;20290;-74
2022/04/17 09:30:33;;;;;;;;;;;16.40;46.80;;;;;;5051130;28;19909;-74
2022/04/17 09:33:02;;;;;;;;;;;16.70;44.00;;;;;;5050941;28;19998;-74
2022/04/17 09:35:27;;;;;;;;;;;16.50;45.00;;;;;;5050850;28;20399;-74
2022/04/17 09:37:57;;;;;;;;;;;18.90;46.60;;;;;;5051108;28;19909;-74
2022/04/17 09:40:23;;;;;;;;;;;17.70;42.10;;;;;;5051229;28;19909;-74
2022/04/17 09:42:48;;;;;;;;;;;18.10;45.40;;;;;;5050503;28;19909;-74
2022/04/17 09:45:14;;;;;;;;;;;19.30;44.00;;;;;;5047378;28;19944;-75
2022/04/17 09:47:40;;;;;;;;;;;20.60;43.00;;;;;;5053015;28;20367;-74
2022/04/17 09:50:09;;;;;;;;;;;20.80;42.70;;;;;;5053780;28;19915;-74
2022/04/17 09:52:40;;;;;;;;;;;18.50;41.00;;;;;;5050646;28;19909;-74
2022/04/17 09:55:06;;;;;;;;;;;18.20;42.80;;;;;;5050766;28;19909;-75
2022/04/17 09:57:36;;;;;;;;;;;17.30;41.40;;;;;;5050772;28;20366;-74
2022/04/17 10:00:10;;;;;;;;;;;17.50;40.80;;;;;;5054386;28;19909;-74
2022/04/17 10:02:36;;;;;;;;;;;18.20;41.60;;;;;;5054519;28;20382;-74
2022/04/17 10:05:03;;;;;;;;;;;19.30;44.30;;;;;;5054387;28;19971;-74
2022/04/17 10:07:28;;;;;;;;;;;19.90;42.10;;;;;;5054561;28;20280;-74
2022/04/17 10:09:54;;;;;;;;;;;18.80;43.80;;;;;;5054474;28;20011;-74
2022/04/17 10:12:20;;;;;;;;;;;20.10;44.30;;;;;;5053837;28;19909;-74
2022/04/17 10:14:47;;;;;;;;;;;19.90;40.40;;;;;;5049025;28;19909;-74
2022/04/17 10:17:13;;;;;;;;;;;20.80;43.60;;;;;;5051750;28;19917;-74
2022/04/17 10:19:41;;;;;;;;;;;21.10;41.20;;;;;;5053883;28;20055;-74
2022/04/17 10:22:08;;;;;;;;;;;21.90;40.80;;;;;;5054313;28;19908;-74
2022/04/17 10:24:37;;;;;;;;;;;20.60;38.70;;;;;;5054449;28;20303;-74
2022/04/17 10:27:03;;;;;;;;;;;19.80;40.20;;;;;;5053907;28;19909;-74
2022/04/17 10:29:32;;;;;;;;;;;20.20;39.30;;;;;;5053889;28;19909;-74
2022/04/17 10:31:58;;;;;;;;;;;21.00;40.60;;;;;;5053885;28;19948;-74
2022/04/17 10:34:24;;;;;;;;;;;23.10;39.90;;;;;;5054142;28;20141;-74
2022/04/17 10:37:04;;;;;;;;;;;22.60;38.10;;;;;;5054971;28;19912;-74
2022/04/17 10:39:33;;;;;;;;;;;22.60;41.10;;;;;;5054530;28;19916;-74
2022/04/17 10:41:58;;;;;;;;;;;20.70;39.60;;;;;;5053388;28;19909;-74
2022/04/17 10:44:28;;;;;;;;;;;20.70;39.60;;;;;;5053376;28;19916;-74
2022/04/17 10:46:53;;;;;;;;;;;21.20;40.30;;;;;;5054414;28;19909;-74
2022/04/17 10:49:20;;;;;;;;;;;21.80;38.90;;;;;;5054993;28;19908;-74
2022/04/17 10:51:49;;;;;;;;;;;22.30;41.40;;;;;;5053781;28;19995;-74
2022/04/17 10:54:15;;;;;;;;;;;22.40;37.10;;;;;;5053449;28;19971;-74
2022/04/17 10:56:56;;;;;;;;;;;22.60;37.50;;;;;;5053556;28;20310;-74
2022/04/17 10:59:26;;;;;;;;;;;21.30;36.70;;;;;;5048333;28;19909;-74
2022/04/17 11:01:53;;;;;;;;;;;20.80;38.00;;;;;;5052300;28;20320;-74
2022/04/17 11:04:24;;;;;;;;;;;21.00;40.70;;;;;;5051976;28;19985;-74
2022/04/17 11:06:53;;;;;;;;;;;22.90;35.00;;;;;;5053221;28;19909;-74
2022/04/17 11:09:20;;;;;;;;;;;21.20;40.00;;;;;;5053228;28;19909;-73
2022/04/17 11:11:46;;;;;;;;;;;21.70;38.00;;;;;;5052971;28;19908;-73
2022/04/17 11:14:21;;;;;;;;;;;21.00;37.40;;;;;;5052909;28;19920;-74
2022/04/17 11:16:46;;;;;;;;;;;20.30;38.60;;;;;;5052757;28;20358;-75
2022/04/17 11:19:13;;;;;;;;;;;21.30;36.90;;;;;;5054103;28;20008;-74
2022/04/17 11:21:50;;;;;;;;;;;22.00;39.50;;;;;;5054584;28;20370;-74
2022/04/17 11:24:15;;;;;;;;;;;21.30;36.70;;;;;;5054140;28;19909;-74
2022/04/17 11:27:01;;;;;;;;;;;21.70;36.80;;;;;;5054525;28;19948;-74
2022/04/17 11:29:33;;;;;;;;;;;22.50;37.20;;;;;;5052292;28;19916;-74
2022/04/17 11:31:58;;;;;;;;;;;21.90;35.50;;;;;;5046163;28;19909;-74
2022/04/17 11:34:24;;;;;;;;;;;21.80;36.60;;;;;;5052613;28;19999;-73
2022/04/17 11:36:49;;;;;;;;;;;21.40;36.20;;;;;;5052689;28;19913;-73
2022/04/17 11:39:25;;;;;;;;;;;22.70;35.70;;;;;;5052713;28;19987;-74
2022/04/17 11:41:51;;;;;;;;;;;22.50;35.30;;;;;;5052412;28;19916;-74
2022/04/17 11:44:16;;;;;;;;;;;23.80;34.90;;;;;;5052564;28;20286;-74
2022/04/17 11:46:42;;;;;;;;;;;21.70;33.50;;;;;;5046291;28;19916;-73
2022/04/17 11:49:08;;;;;;;;;;;20.70;36.20;;;;;;5052500;28;19909;-73
2022/04/17 11:51:41;;;;;;;;;;;20.00;35.00;;;;;;5052247;28;19912;-73
2022/04/17 11:54:06;;;;;;;;;;;20.80;35.30;;;;;;5045782;28;19913;-73
2022/04/17 11:56:51;;;;;;;;;;;20.90;35.60;;;;;;5052382;28;19915;-74
2022/04/17 11:59:17;;;;;;;;;;;22.00;34.00;;;;;;5048146;28;19996;-74
2022/04/17 12:01:42;;;;;;;;;;;21.40;33.10;;;;;;5051930;28;19915;-73
2022/04/17 12:04:18;;;;;;;;;;;21.60;34.90;;;;;;5052132;28;20286;-74
2022/04/17 12:06:44;;;;;;;;;;;22.70;34.40;;;;;;5052390;28;20391;-73
2022/04/17 12:09:11;;;;;;;;;;;22.60;35.40;;;;;;5052248;28;19915;-73
2022/04/17 12:11:39;;;;;;;;;;;21.00;33.40;;;;;;5051982;28;19909;-73
2022/04/17 12:14:05;;;;;;;;;;;19.60;34.80;;;;;;5051848;28;20360;-73
2022/04/17 12:16:30;;;;;;;;;;;20.00;37.60;;;;;;5042352;28;19909;-73
2022/04/17 12:18:56;;;;;;;;;;;21.50;35.50;;;;;;5051884;28;19923;-74
2022/04/17 12:21:29;;;;;;;;;;;21.90;33.80;;;;;;5050853;28;19988;-73
2022/04/17 12:23:54;;;;;;;;;;;21.80;35.80;;;;;;5051874;28;19912;-74
2022/04/17 12:26:20;;;;;;;;;;;22.30;36.20;;;;;;5052021;28;19909;-74
2022/04/17 12:28:46;;;;;;;;;;;20.50;36.60;;;;;;5051925;28;20365;-73
2022/04/17 12:31:14;;;;;;;;;;;19.70;39.90;;;;;;5051761;28;19913;-74
2022/04/17 12:33:40;;;;;;;;;;;18.40;40.00;;;;;;5051603;28;19913;-73
2022/04/17 12:36:07;;;;;;;;;;;18.50;40.10;;;;;;5051611;28;20354;-74
2022/04/17 12:38:33;;;;;;;;;;;18.40;40.80;;;;;;5051656;28;19909;-73
2022/04/17 12:40:58;;;;;;;;;;;18.30;41.00;;;;;;5051379;28;19909;-73
2022/04/17 12:43:27;;;;;;;;;;;18.20;43.40;;;;;;5051261;28;19962;-74
2022/04/17 12:45:54;;;;;;;;;;;17.70;42.80;;;;;;5047390;28;19913;-73
2022/04/17 12:48:26;;;;;;;;;;;15.50;42.80;;;;;;5044074;28;20324;-73
2022/04/17 12:50:59;;;;;;;;;;;15.10;46.00;;;;;;5051454;28;19915;-73
2022/04/17 12:53:25;;;;;;;;;;;15.40;47.60;;;;;;5050997;28;19967;-73
2022/04/17 12:55:52;;;;;;;;;;;15.10;47.20;;;;;;5051498;28;19998;-73
2022/04/17 12:58:18;;;;;;;;;;;14.80;48.80;;;;;;5050204;28;20057;-73
2022/04/17 13:00:53;;;;;;;;;;;14.90;48.00;;;;;;5051310;28;19909;-73
2022/04/17 13:03:19;;;;;;;;;;;14.70;48.40;;;;;;5051033;28;19912;-73
2022/04/17 13:05:57;;;;;;;;;;;14.90;51.10;;;;;;5051168;28;19954;-73
2022/04/17 13:08:22;;;;;;;;;;;14.20;47.90;;;;;;5051065;28;19999;-73
2022/04/17 13:10:48;;;;;;;;;;;13.90;48.00;;;;;;5051129;28;19964;-73
2022/04/17 13:13:14;;;;;;;;;;;14.10;49.30;;;;;;5050779;28;20336;-72
2022/04/17 13:15:39;;;;;;;;;;;13.90;49.10;;;;;;5051035;28;19909;-72
2022/04/17 13:18:05;;;;;;;;;;;13.90;51.10;;;;;;5050687;28;19928;-73
2022/04/17 13:20:34;;;;;;;;;;;13.90;50.70;;;;;;5051039;28;20011;-72
2022/04/17 13:23:00;;;;;;;;;;;13.90;50.00;;;;;;5050629;28;19915;-72
2022/04/17 13:25:25;;;;;;;;;;;13.90;50.10;;;;;;5050899;28;19992;-72
2022/04/17 13:27:51;;;;;;;;;;;13.90;49.60;;;;;;5050982;28;20393;-72
2022/04/17 13:30:18;;;;;;;;;;;13.80;48.90;;;;;;5050977;28;20324;-73
2022/04/17 13:32:44;;;;;;;;;;;13.80;50.10;;;;;;5052724;28;19916;-73
2022/04/17 13:35:09;;;;;;;;;;;13.80;50.80;;;;;;5055343;28;19912;-73
2022/04/17 13:40:19;;;;;;;;;;;14.10;50.80;;;;;;5055036;28;19916;-72
2022/04/17 13:42:45;;;;;;;;;;;14.00;48.60;;;;;;5054743;28;19908;-73
2022/04/17 13:45:10;;;;;;;;;;;14.10;50.40;;;;;;5052830;28;19916;-73
2022/04/17 13:47:38;;;;;;;;;;;14.10;48.50;;;;;;5054601;28;19971;-72
2022/04/17 13:50:04;;;;;;;;;;;13.70;47.90;;;;;;5054617;28;19909;-73
2022/04/17 13:52:30;;;;;;;;;;;13.70;49.00;;;;;;5054604;28;19939;-73
2022/04/17 13:54:56;;;;;;;;;;;14.10;51.70;;;;;;5053348;28;19909;-72
2022/04/17 13:57:21;;;;;;;;;;;14.00;49.00;;;;;;5060503;28;19909;-73
2022/04/17 13:59:47;;;;;;;;;;;14.10;50.30;;;;;;5054515;28;20335;-73
2022/04/17 14:02:13;;;;;;;;;;;14.60;50.00;;;;;;5054630;28;19963;-73
2022/04/17 14:04:39;;;;;;;;;;;15.30;47.40;;;;;;5054146;28;19915;-73
2022/04/17 14:07:08;;;;;;;;;;;19.00;43.60;;;;;;5054429;28;19913;-73
2022/04/17 14:09:35;;;;;;;;;;;20.50;39.20;;;;;;5054192;28;20293;-74
2022/04/17 14:12:00;;;;;;;;;;;21.10;37.70;;;;;;5054019;28;19917;-74
2022/04/17 14:14:29;;;;;;;;;;;20.40;38.10;;;;;;5054134;28;20259;-74
2022/04/17 14:16:54;;;;;;;;;;;21.10;38.60;;;;;;5053183;28;19962;-74
2022/04/17 14:19:20;;;;;;;;;;;22.00;36.10;;;;;;5051668;28;20391;-75
2022/04/17 14:21:48;;;;;;;;;;;21.80;36.60;;;;;;5052171;28;19915;-75
2022/04/17 14:24:13;;;;;;;;;;;21.70;37.40;;;;;;5052645;28;19948;-75
2022/04/17 14:26:39;;;;;;;;;;;22.00;36.50;;;;;;5052543;28;19916;-74
2022/04/17 14:29:05;;;;;;;;;;;22.10;34.50;;;;;;5052902;28;20227;-74
2022/04/17 14:31:30;;;;;;;;;;;21.40;34.10;;;;;;5053195;28;19909;-74
2022/04/17 14:33:56;;;;;;;;;;;21.80;36.40;;;;;;5053538;28;19913;-75
2022/04/17 14:36:21;;;;;;;;;;;20.90;34.70;;;;;;5053924;28;19962;-75